Time;durP1;ratioP1;P1;durP2;ratioP2;P2;SDS_P1;SDS_P2;PMS_P1;PMS_P2;Temp;Humidity;BMP_temperature;BMP_pressure;BME280_temperature;BME280_humidity;BME280_pressure;Samples;Min_cycle;Max_cycle;Signal;HPM_P1;HPM_P2
2024/01/09 05:06:23;;;;;;;0.40;0.40;;;-4.60;99.90;;;;;;5497131;23;20229;-64
2024/01/09 05:08:49;;;;;;;0.47;0.47;;;-4.60;99.90;;;;;;4937562;29;20510;-65
2024/01/09 05:11:14;;;;;;;0.40;0.40;;;-4.60;99.90;;;;;;4937718;29;20530;-65
2024/01/09 05:13:40;;;;;;;0.50;0.50;;;-4.60;99.90;;;;;;4937582;29;20189;-64
2024/01/09 05:16:05;;;;;;;0.50;0.50;;;-4.60;99.90;;;;;;4946204;29;20352;-64
2024/01/09 05:18:32;;;;;;;0.50;0.50;;;-4.60;99.90;;;;;;4956150;28;20177;-63
2024/01/09 05:20:58;;;;;;;0.40;0.40;;;-4.60;99.90;;;;;;4955370;29;20499;-65
2024/01/09 05:23:24;;;;;;;0.40;0.40;;;-4.70;99.90;;;;;;4955397;29;20275;-64
2024/01/09 05:25:52;;;;;;;0.40;0.40;;;-4.60;99.90;;;;;;4955347;29;20224;-66
2024/01/09 05:28:18;;;;;;;0.50;0.50;;;-4.70;99.90;;;;;;4954634;28;20165;-66
2024/01/09 05:30:44;;;;;;;0.50;0.50;;;-4.60;99.90;;;;;;4954522;29;20174;-66
2024/01/09 05:33:09;;;;;;;0.40;0.40;;;-4.70;99.90;;;;;;4955687;29;20224;-65
2024/01/09 05:35:35;;;;;;;0.40;0.40;;;-4.60;99.90;;;;;;4953955;29;20708;-66
2024/01/09 05:38:01;;;;;;;1.07;1.07;;;-4.60;99.90;;;;;;4954309;29;20663;-64
2024/01/09 05:40:27;;;;;;;0.40;0.40;;;-4.60;99.90;;;;;;4955131;28;20165;-64
2024/01/09 05:42:53;;;;;;;0.45;0.45;;;-4.60;99.90;;;;;;4955579;29;20216;-64
2024/01/09 05:45:19;;;;;;;0.47;0.47;;;-4.60;99.90;;;;;;4955836;29;20196;-64
2024/01/09 05:47:44;;;;;;;0.40;0.40;;;-4.60;99.90;;;;;;4954789;29;20200;-66
2024/01/09 05:50:10;;;;;;;0.50;0.50;;;-4.60;99.90;;;;;;4953850;29;20653;-67
2024/01/09 05:52:37;;;;;;;0.40;0.40;;;-4.60;99.90;;;;;;4953899;28;20177;-67
2024/01/09 05:55:03;;;;;;;0.40;0.40;;;-4.60;99.90;;;;;;4953685;28;20224;-66
2024/01/09 05:57:29;;;;;;;0.50;0.50;;;-4.60;99.90;;;;;;4953628;28;20173;-67
2024/01/09 05:59:55;;;;;;;0.40;0.40;;;-4.60;99.90;;;;;;4952520;29;20232;-65
2024/01/09 06:02:21;;;;;;;0.57;0.57;;;-4.60;99.90;;;;;;4954141;29;20601;-65
2024/01/09 06:04:47;;;;;;;0.55;0.55;;;-4.50;99.90;;;;;;4955557;28;20204;-64
2024/01/09 06:07:12;;;;;;;0.40;0.40;;;-4.50;99.90;;;;;;4955380;29;20244;-66
2024/01/09 06:09:38;;;;;;;0.40;0.40;;;-4.50;99.90;;;;;;4954466;29;20421;-65
2024/01/09 06:12:04;;;;;;;0.50;0.50;;;-4.50;99.90;;;;;;4955523;29;20169;-64
2024/01/09 06:14:30;;;;;;;0.40;0.40;;;-4.50;99.90;;;;;;4955333;28;20270;-66
2024/01/09 06:16:55;;;;;;;0.50;0.50;;;-4.50;99.90;;;;;;4946236;29;20641;-65
2024/01/09 06:19:21;;;;;;;0.50;0.50;;;-4.50;99.90;;;;;;4949653;29;20185;-63
2024/01/09 06:21:46;;;;;;;0.40;0.40;;;-4.50;99.90;;;;;;4955056;29;20296;-63
2024/01/09 06:24:12;;;;;;;0.43;0.43;;;-4.50;99.90;;;;;;4935958;29;20169;-64
2024/01/09 06:26:38;;;;;;;0.40;0.40;;;-4.50;99.90;;;;;;4935718;29;20213;-64
2024/01/09 06:29:05;;;;;;;0.40;0.40;;;-4.60;99.90;;;;;;4935974;29;20166;-64
2024/01/09 06:31:31;;;;;;;0.40;0.40;;;-4.60;99.90;;;;;;4935794;29;20166;-63
2024/01/09 06:33:57;;;;;;;0.40;0.40;;;-4.60;99.90;;;;;;4936288;29;20693;-64
2024/01/09 06:36:22;;;;;;;0.40;0.40;;;-4.60;99.90;;;;;;4946321;29;20533;-63
2024/01/09 06:38:48;;;;;;;0.50;0.50;;;-4.60;99.90;;;;;;4936128;29;20173;-63
2024/01/09 06:41:13;;;;;;;0.40;0.40;;;-4.60;99.90;;;;;;4936011;29;20722;-63
2024/01/09 06:43:39;;;;;;;0.40;0.40;;;-4.60;99.90;;;;;;4935902;29;20268;-63
2024/01/09 06:46:05;;;;;;;0.50;0.50;;;-4.60;99.90;;;;;;4945252;29;20205;-63
2024/01/09 06:48:30;;;;;;;0.60;0.60;;;-4.60;99.90;;;;;;4955233;29;20660;-64
2024/01/09 06:50:56;;;;;;;0.50;0.50;;;-4.60;99.90;;;;;;4955230;29;20164;-64
2024/01/09 06:53:21;;;;;;;0.40;0.40;;;-4.60;99.90;;;;;;4955079;29;20204;-63
2024/01/09 06:55:47;;;;;;;0.50;0.50;;;-4.60;99.90;;;;;;4953360;29;20580;-63
2024/01/09 06:58:13;;;;;;;0.50;0.50;;;-4.60;99.90;;;;;;4955121;29;20212;-63
2024/01/09 07:00:38;;;;;;;0.50;0.50;;;-4.60;99.90;;;;;;4945921;28;20540;-64
2024/01/09 07:03:04;;;;;;;0.50;0.50;;;-4.60;99.90;;;;;;4934679;29;20774;-64
2024/01/09 07:05:29;;;;;;;0.50;0.50;;;-4.70;99.90;;;;;;4947699;29;20224;-63
2024/01/09 07:07:55;;;;;;;0.50;0.50;;;-4.60;99.90;;;;;;4935656;29;20621;-64
2024/01/09 07:10:21;;;;;;;0.53;0.53;;;-4.60;99.90;;;;;;4936062;29;20188;-64
2024/01/09 07:12:46;;;;;;;0.50;0.50;;;-4.60;99.90;;;;;;4935793;29;20499;-64
2024/01/09 07:15:14;;;;;;;0.50;0.50;;;-4.60;99.90;;;;;;4935508;29;20178;-64
2024/01/09 07:17:40;;;;;;;0.77;0.77;;;-4.60;99.90;;;;;;4935721;29;20204;-65
2024/01/09 07:20:06;;;;;;;0.43;0.43;;;-4.60;99.90;;;;;;4935822;29;20218;-63
2024/01/09 07:22:31;;;;;;;0.50;0.50;;;-4.60;99.90;;;;;;4935882;29;20209;-64
2024/01/09 07:24:57;;;;;;;0.50;0.50;;;-4.60;99.90;;;;;;4950122;29;20593;-65
2024/01/09 07:27:23;;;;;;;0.50;0.50;;;-4.50;99.90;;;;;;4935811;29;20202;-64
2024/01/09 07:29:48;;;;;;;0.60;0.60;;;-4.50;99.90;;;;;;4935656;29;20170;-63
2024/01/09 07:32:14;;;;;;;0.60;0.60;;;-4.50;99.90;;;;;;4935840;29;20582;-64
2024/01/09 07:34:39;;;;;;;0.57;0.57;;;-4.50;99.90;;;;;;4935389;29;20178;-65
2024/01/09 07:37:05;;;;;;;0.50;0.50;;;-4.50;99.90;;;;;;4936267;29;20300;-64
2024/01/09 07:39:30;;;;;;;0.57;0.57;;;-4.50;99.90;;;;;;4936011;29;20529;-64
2024/01/09 07:41:56;;;;;;;0.40;0.40;;;-4.50;99.90;;;;;;4937542;29;20174;-63
2024/01/09 07:44:22;;;;;;;0.50;0.50;;;-4.30;99.90;;;;;;4939389;29;20173;-64
2024/01/09 07:46:47;;;;;;;0.43;0.43;;;-4.10;99.90;;;;;;4939109;29;20213;-65
2024/01/09 07:49:13;;;;;;;0.50;0.50;;;-3.90;99.90;;;;;;4939124;29;20170;-64
2024/01/09 07:51:38;;;;;;;0.50;0.50;;;-3.80;99.90;;;;;;4939369;29;20182;-64
2024/01/09 07:54:04;;;;;;;0.60;0.60;;;-3.70;99.90;;;;;;4939229;29;20171;-64
2024/01/09 07:56:30;;;;;;;0.50;0.50;;;-3.60;99.90;;;;;;4938764;29;20248;-64
2024/01/09 07:58:55;;;;;;;0.60;0.60;;;-3.40;99.90;;;;;;4938797;29;20179;-65
2024/01/09 08:01:21;;;;;;;0.60;0.60;;;-3.30;99.90;;;;;;4937705;29;20512;-64
2024/01/09 08:03:46;;;;;;;0.60;0.60;;;-3.20;99.90;;;;;;4938846;29;20179;-64
2024/01/09 08:06:14;;;;;;;0.40;0.40;;;-3.10;99.90;;;;;;4938244;29;20215;-65
2024/01/09 08:08:40;;;;;;;0.50;0.50;;;-3.10;99.90;;;;;;4938586;29;20176;-65
2024/01/09 08:11:06;;;;;;;0.40;0.40;;;-3.00;99.90;;;;;;4938734;29;20179;-66
2024/01/09 08:13:32;;;;;;;0.50;0.50;;;-3.00;99.90;;;;;;4938935;29;20185;-64
2024/01/09 08:15:58;;;;;;;0.40;0.40;;;-2.90;99.90;;;;;;4938116;29;20659;-64
2024/01/09 08:18:24;;;;;;;0.50;0.50;;;-2.80;99.90;;;;;;4938516;29;20182;-64
2024/01/09 08:20:50;;;;;;;0.50;0.50;;;-2.60;99.90;;;;;;4938436;29;20177;-64
2024/01/09 08:23:16;;;;;;;0.40;0.40;;;-2.30;99.90;;;;;;4953096;29;20186;-65
2024/01/09 08:25:42;;;;;;;0.50;0.50;;;-1.90;99.60;;;;;;4937837;29;20272;-65
2024/01/09 08:28:08;;;;;;;0.40;0.40;;;-1.70;98.90;;;;;;4937043;29;20180;-65
2024/01/09 08:30:34;;;;;;;0.40;0.40;;;-1.40;97.60;;;;;;4937059;29;20177;-65
2024/01/09 08:33:00;;;;;;;0.50;0.50;;;-0.90;98.10;;;;;;4938360;29;20264;-65
2024/01/09 08:35:25;;;;;;;0.40;0.40;;;-0.40;96.20;;;;;;4937837;29;20425;-64
2024/01/09 08:37:51;;;;;;;0.47;0.47;;;0.20;96.00;;;;;;4938300;29;20409;-63
2024/01/09 08:40:16;;;;;;;0.57;0.57;;;0.60;94.80;;;;;;4938325;29;20169;-64
2024/01/09 08:42:42;;;;;;;0.43;0.43;;;0.90;93.20;;;;;;4938357;29;20231;-65
2024/01/09 08:45:11;;;;;;;0.50;0.50;;;0.90;92.00;;;;;;4937623;29;20180;-63
2024/01/09 08:47:37;;;;;;;0.35;0.35;;;1.00;91.90;;;;;;4938026;29;20199;-64
2024/01/09 08:50:04;;;;;;;0.47;0.47;;;1.30;91.40;;;;;;4938036;29;20532;-63
2024/01/09 08:52:30;;;;;;;0.50;0.50;;;1.60;90.60;;;;;;4937471;29;20332;-64
2024/01/09 08:54:56;;;;;;;0.35;0.35;;;2.00;90.10;;;;;;4937316;29;20498;-63
2024/01/09 08:57:22;;;;;;;0.30;0.30;;;2.30;90.60;;;;;;4937735;29;20204;-65
2024/01/09 08:59:48;;;;;;;0.30;0.30;;;2.80;90.10;;;;;;4937779;29;20313;-63
2024/01/09 09:02:14;;;;;;;0.40;0.40;;;3.30;87.00;;;;;;4937602;29;20918;-64
2024/01/09 09:04:40;;;;;;;0.70;0.70;;;3.70;85.40;;;;;;4937496;29;20272;-62
2024/01/09 09:07:06;;;;;;;0.32;0.32;;;3.80;82.50;;;;;;4937198;29;20221;-66
2024/01/09 09:09:34;;;;;;;0.40;0.40;;;4.10;82.90;;;;;;4937489;29;20185;-65
2024/01/09 09:12:00;;;;;;;0.43;0.43;;;4.50;88.20;;;;;;4937714;29;20224;-65
2024/01/09 09:14:26;;;;;;;0.30;0.30;;;4.80;80.70;;;;;;4937243;29;20638;-65
2024/01/09 09:16:51;;;;;;;0.30;0.30;;;4.90;78.40;;;;;;4937204;29;20657;-63
2024/01/09 09:19:22;;;;;;;0.60;0.60;;;5.00;81.60;;;;;;4937367;29;20175;-66
2024/01/09 09:21:52;;;;;;;0.30;0.30;;;5.20;79.30;;;;;;4937357;29;20175;-64
2024/01/09 09:24:17;;;;;;;0.30;0.30;;;5.20;77.00;;;;;;4936997;29;20170;-66
2024/01/09 09:26:43;;;;;;;0.30;0.30;;;5.20;76.30;;;;;;4937002;29;20477;-65
2024/01/09 09:29:09;;;;;;;1.80;0.83;;;5.10;74.80;;;;;;4937101;29;20171;-66
2024/01/09 09:31:35;;;;;;;0.30;0.30;;;4.80;74.80;;;;;;4937123;29;20174;-65
2024/01/09 09:34:00;;;;;;;0.57;0.50;;;4.80;76.80;;;;;;4937227;29;20190;-65
2024/01/09 09:36:26;;;;;;;0.30;0.30;;;4.70;76.30;;;;;;4936786;29;20207;-66
2024/01/09 09:38:53;;;;;;;0.30;0.30;;;4.90;78.30;;;;;;4937145;29;20247;-67
2024/01/09 09:41:20;;;;;;;0.50;0.50;;;5.00;76.00;;;;;;4936867;29;20200;-63
2024/01/09 09:43:55;;;;;;;0.30;0.20;;;5.00;75.60;;;;;;4937001;29;20178;-65
2024/01/09 09:46:31;;;;;;;0.30;0.30;;;5.10;75.70;;;;;;4935126;29;20272;-65
2024/01/09 09:48:58;;;;;;;0.30;0.20;;;5.20;74.40;;;;;;4935635;29;20185;-65
2024/01/09 09:51:25;;;;;;;0.40;0.40;;;5.30;74.00;;;;;;4936885;29;20174;-64
2024/01/09 09:53:54;;;;;;;0.32;0.32;;;5.20;72.90;;;;;;4936870;29;20176;-65
2024/01/09 09:56:20;;;;;;;0.30;0.20;;;5.00;71.80;;;;;;4936389;29;20193;-63
2024/01/09 09:58:46;;;;;;;0.30;0.30;;;4.60;71.00;;;;;;4936881;29;20177;-65
2024/01/09 10:01:13;;;;;;;0.40;0.40;;;4.50;72.80;;;;;;4936709;29;20184;-64
2024/01/09 10:04:02;;;;;;;0.30;0.30;;;4.50;73.60;;;;;;4936585;29;20220;-64
2024/01/09 10:06:28;;;;;;;0.40;0.40;;;4.60;74.10;;;;;;4934637;29;20229;-64
2024/01/09 10:08:56;;;;;;;0.40;0.40;;;4.60;73.70;;;;;;4936502;29;20201;-64
2024/01/09 10:11:22;;;;;;;0.30;0.30;;;4.70;71.60;;;;;;4936305;29;20656;-65
2024/01/09 10:13:47;;;;;;;0.30;0.30;;;4.60;71.50;;;;;;4936372;29;20169;-65
2024/01/09 10:16:13;;;;;;;0.30;0.30;;;4.50;72.10;;;;;;4936091;29;20207;-64
2024/01/09 10:18:40;;;;;;;0.40;0.40;;;4.50;70.00;;;;;;4935316;29;20661;-63
2024/01/09 10:21:06;;;;;;;0.30;0.30;;;4.40;71.00;;;;;;4936424;29;20205;-65
2024/01/09 10:23:35;;;;;;;0.35;0.35;;;4.40;71.70;;;;;;4936447;29;20219;-64
2024/01/09 10:26:04;;;;;;;0.60;0.60;;;4.40;71.40;;;;;;4935582;29;20256;-66
2024/01/09 10:28:29;;;;;;;0.30;0.30;;;4.60;71.80;;;;;;4936127;29;20177;-65
2024/01/09 10:30:55;;;;;;;0.30;0.30;;;4.70;69.40;;;;;;4936133;29;20648;-65
2024/01/09 10:33:20;;;;;;;0.30;0.30;;;4.70;69.10;;;;;;4936098;29;20170;-63
2024/01/09 10:35:46;;;;;;;0.50;0.50;;;4.60;70.00;;;;;;4935824;29;20190;-65
2024/01/09 10:38:12;;;;;;;0.30;0.30;;;4.40;68.40;;;;;;4936021;29;20165;-65
2024/01/09 10:40:38;;;;;;;0.30;0.30;;;4.20;69.00;;;;;;4936068;29;20542;-65
2024/01/09 10:43:03;;;;;;;0.40;0.40;;;4.00;69.10;;;;;;4935729;29;20409;-64
2024/01/09 10:45:32;;;;;;;0.30;0.30;;;3.70;70.00;;;;;;4935531;29;20537;-65
2024/01/09 10:47:59;;;;;;;0.52;0.52;;;3.50;70.00;;;;;;4935812;29;20552;-63
2024/01/09 10:50:25;;;;;;;0.40;0.40;;;3.40;70.50;;;;;;4935953;29;20708;-65
2024/01/09 10:52:51;;;;;;;0.30;0.30;;;3.50;70.90;;;;;;4935751;29;20256;-63
2024/01/09 10:55:18;;;;;;;0.30;0.30;;;3.50;71.10;;;;;;4935571;29;21920;-64
2024/01/09 10:57:50;;;;;;;0.30;0.30;;;3.60;71.20;;;;;;4935887;29;20177;-64
2024/01/09 11:00:16;;;;;;;0.75;0.75;;;3.60;71.50;;;;;;4936066;29;20177;-63
2024/01/09 11:02:42;;;;;;;0.40;0.40;;;3.50;70.50;;;;;;4935733;29;20623;-65
2024/01/09 11:05:10;;;;;;;0.40;0.40;;;3.30;69.80;;;;;;4935256;29;20415;-63
2024/01/09 11:07:37;;;;;;;0.50;0.50;;;3.20;70.30;;;;;;4935402;29;20227;-64
2024/01/09 11:10:04;;;;;;;0.30;0.30;;;3.10;70.20;;;;;;4934452;29;20590;-63
2024/01/09 11:12:44;;;;;;;0.45;0.45;;;2.90;71.30;;;;;;4935513;29;20173;-64
2024/01/09 11:15:26;;;;;;;0.30;0.30;;;2.90;71.70;;;;;;4935137;29;20176;-65
2024/01/09 11:18:01;;;;;;;0.35;0.35;;;2.80;71.40;;;;;;4939022;29;20179;-65
2024/01/09 11:20:27;;;;;;;0.30;0.30;;;2.50;71.40;;;;;;4939636;29;20178;-65
2024/01/09 11:22:52;;;;;;;0.50;0.50;;;2.10;71.20;;;;;;4939444;29;20176;-63
2024/01/09 11:25:23;;;;;;;0.40;0.40;;;1.70;71.90;;;;;;4939300;29;20264;-65
2024/01/09 11:27:51;;;;;;;0.40;0.40;;;1.40;73.40;;;;;;4939287;29;20207;-65
2024/01/09 11:30:21;;;;;;;0.60;0.60;;;1.20;75.30;;;;;;4939244;29;20166;-65
2024/01/09 11:32:47;;;;;;;0.50;0.50;;;1.00;75.00;;;;;;4939303;29;20173;-63
2024/01/09 11:35:16;;;;;;;1.58;0.93;;;0.90;75.40;;;;;;4938592;29;20629;-63
2024/01/09 11:37:46;;;;;;;0.40;0.40;;;0.80;76.50;;;;;;4939443;29;20177;-65
2024/01/09 11:40:12;;;;;;;0.55;0.55;;;0.70;75.50;;;;;;4938979;29;20180;-64
2024/01/09 11:42:45;;;;;;;0.40;0.40;;;0.50;75.00;;;;;;4938805;29;20177;-64
2024/01/09 11:45:12;;;;;;;0.60;0.60;;;0.50;76.60;;;;;;4938663;29;20166;-64
2024/01/09 11:47:39;;;;;;;1.00;1.00;;;0.40;76.70;;;;;;4938867;29;20267;-64
2024/01/09 11:50:09;;;;;;;0.40;0.40;;;0.50;76.60;;;;;;4938788;29;20173;-65
2024/01/09 11:52:36;;;;;;;0.47;0.47;;;0.40;76.00;;;;;;4937705;29;20185;-66
2024/01/09 11:55:07;;;;;;;4.00;1.73;;;0.40;76.30;;;;;;4938242;29;20172;-65
2024/01/09 11:57:34;;;;;;;0.40;0.40;;;0.40;77.00;;;;;;4921766;29;20231;-65
2024/01/09 12:00:05;;;;;;;0.40;0.40;;;0.40;77.50;;;;;;4938479;29;20181;-64
2024/01/09 12:02:31;;;;;;;0.40;0.40;;;0.50;77.70;;;;;;4938806;29;20261;-64
2024/01/09 12:04:57;;;;;;;0.50;0.50;;;0.40;77.30;;;;;;4938200;29;20176;-64
2024/01/09 12:07:23;;;;;;;0.40;0.40;;;0.50;77.80;;;;;;4938216;29;20205;-65
2024/01/09 12:09:49;;;;;;;1.73;1.67;;;0.50;77.10;;;;;;4938500;29;20437;-62
2024/01/09 12:12:24;;;;;;;0.50;0.50;;;0.50;77.30;;;;;;4938504;29;20239;-65
2024/01/09 12:14:58;;;;;;;0.30;0.30;;;0.50;77.70;;;;;;4936576;29;20213;-64
2024/01/09 12:17:33;;;;;;;0.40;0.40;;;0.60;77.40;;;;;;4936931;29;20236;-64
2024/01/09 12:20:02;;;;;;;0.40;0.40;;;0.60;77.50;;;;;;4938330;29;20229;-63
2024/01/09 12:22:28;;;;;;;0.40;0.40;;;0.70;78.20;;;;;;4938602;29;20181;-65
2024/01/09 12:24:55;;;;;;;0.40;0.40;;;0.70;78.20;;;;;;4937928;29;20176;-64
2024/01/09 12:27:23;;;;;;;0.32;0.32;;;0.70;76.80;;;;;;4937193;29;20460;-63
2024/01/09 12:29:50;;;;;;;0.40;0.40;;;0.80;76.60;;;;;;4937894;29;20202;-63
2024/01/09 12:32:16;;;;;;;0.45;0.45;;;0.80;75.80;;;;;;4937503;29;20475;-67
2024/01/09 12:34:42;;;;;;;0.40;0.40;;;0.80;75.10;;;;;;4936402;29;20174;-63
2024/01/09 12:37:08;;;;;;;0.47;0.47;;;0.80;75.10;;;;;;4937864;29;20192;-65
2024/01/09 12:39:38;;;;;;;0.60;0.60;;;0.80;75.30;;;;;;4937876;29;20244;-65
2024/01/09 12:42:06;;;;;;;0.93;0.93;;;0.80;75.40;;;;;;4937884;29;20566;-65
2024/01/09 12:44:33;;;;;;;0.40;0.40;;;0.90;75.60;;;;;;4937539;29;20573;-64
2024/01/09 12:47:00;;;;;;;0.50;0.50;;;0.90;74.80;;;;;;4937419;29;20190;-65
2024/01/09 12:49:26;;;;;;;0.40;0.40;;;0.90;75.50;;;;;;4938512;29;20185;-66
2024/01/09 12:51:56;;;;;;;0.40;0.40;;;0.90;75.50;;;;;;4953974;28;20177;-67
2024/01/09 12:54:22;;;;;;;0.50;0.50;;;0.90;75.40;;;;;;4956452;28;20255;-65
2024/01/09 12:56:48;;;;;;;0.40;0.40;;;1.00;75.70;;;;;;4956618;28;20236;-66
2024/01/09 12:59:21;;;;;;;0.30;0.30;;;1.00;76.60;;;;;;4956889;28;20637;-66
2024/01/09 13:01:47;;;;;;;0.40;0.40;;;1.00;76.30;;;;;;4953087;29;20181;-66
2024/01/09 13:04:13;;;;;;;0.40;0.40;;;1.10;76.10;;;;;;4947064;29;20181;-64
2024/01/09 13:06:39;;;;;;;0.40;0.40;;;1.10;76.10;;;;;;4940540;29;20476;-64
2024/01/09 13:09:08;;;;;;;0.40;0.40;;;1.10;76.40;;;;;;4936097;29;20476;-67
2024/01/09 13:11:34;;;;;;;0.40;0.40;;;1.10;76.20;;;;;;4937416;29;20172;-66
2024/01/09 13:14:01;;;;;;;0.40;0.40;;;1.10;75.80;;;;;;4937411;29;20173;-65
2024/01/09 13:16:27;;;;;;;0.30;0.30;;;1.10;75.90;;;;;;4941865;29;20806;-64
2024/01/09 13:18:52;;;;;;;0.40;0.40;;;1.10;75.60;;;;;;4937201;29;20183;-66
2024/01/09 13:21:18;;;;;;;0.40;0.40;;;1.20;75.40;;;;;;4937055;29;20256;-64
2024/01/09 13:23:44;;;;;;;0.30;0.30;;;1.10;74.60;;;;;;4937046;29;20169;-66
2024/01/09 13:26:09;;;;;;;0.30;0.30;;;1.10;74.90;;;;;;4936508;29;20862;-64
2024/01/09 13:28:35;;;;;;;0.30;0.30;;;1.10;75.80;;;;;;4953534;29;20185;-67
2024/01/09 13:31:01;;;;;;;0.60;0.60;;;1.20;76.00;;;;;;4956145;29;20184;-64
2024/01/09 13:33:27;;;;;;;0.40;0.40;;;1.20;76.20;;;;;;4955950;28;20177;-64
2024/01/09 13:35:52;;;;;;;0.47;0.47;;;1.20;75.90;;;;;;4955578;29;20432;-66
2024/01/09 13:38:18;;;;;;;0.40;0.40;;;1.20;75.60;;;;;;4955904;29;20169;-65
2024/01/09 13:40:44;;;;;;;0.40;0.40;;;1.20;75.30;;;;;;4951866;28;20642;-65
2024/01/09 13:43:10;;;;;;;0.30;0.30;;;1.20;75.60;;;;;;4951133;29;20176;-64
2024/01/09 13:45:36;;;;;;;0.40;0.40;;;1.20;76.40;;;;;;4935422;29;20236;-65
2024/01/09 13:48:01;;;;;;;0.40;0.40;;;1.20;76.40;;;;;;4936488;29;20558;-65
2024/01/09 13:50:27;;;;;;;0.40;0.40;;;1.30;76.70;;;;;;4936641;29;20169;-65
2024/01/09 13:52:54;;;;;;;0.40;0.40;;;1.30;76.60;;;;;;4936872;29;20166;-65
2024/01/09 13:55:20;;;;;;;0.30;0.30;;;1.30;77.10;;;;;;4934965;29;20576;-67
2024/01/09 13:57:47;;;;;;;0.30;0.30;;;1.40;77.00;;;;;;4934408;29;20173;-66
2024/01/09 14:00:14;;;;;;;0.40;0.40;;;1.40;76.30;;;;;;4934393;29;20170;-65
2024/01/09 14:02:40;;;;;;;0.50;0.50;;;1.40;77.00;;;;;;4934350;29;20264;-66
2024/01/09 14:05:09;;;;;;;0.30;0.30;;;1.40;75.90;;;;;;4933934;29;20193;-68
2024/01/09 14:07:38;;;;;;;0.40;0.40;;;1.30;76.30;;;;;;4934090;29;20205;-66
2024/01/09 14:10:05;;;;;;;0.40;0.40;;;1.30;75.80;;;;;;4944438;29;20176;-64
2024/01/09 14:12:32;;;;;;;0.30;0.30;;;1.30;75.70;;;;;;4955566;28;20172;-64
2024/01/09 14:14:58;;;;;;;0.60;0.60;;;1.30;75.90;;;;;;4954943;28;20503;-65
2024/01/09 14:17:25;;;;;;;0.30;0.30;;;1.30;75.90;;;;;;4955280;28;20540;-67
2024/01/09 14:19:50;;;;;;;0.40;0.40;;;1.30;75.80;;;;;;4955228;28;20176;-64
2024/01/09 14:22:16;;;;;;;0.40;0.40;;;1.20;75.50;;;;;;4955175;29;20176;-65
2024/01/09 14:24:42;;;;;;;0.40;0.40;;;1.20;75.80;;;;;;4946104;29;20543;-65
2024/01/09 14:27:07;;;;;;;9.43;1.53;;;1.20;75.60;;;;;;4934751;29;20205;-65
2024/01/09 14:29:33;;;;;;;0.40;0.40;;;1.20;75.70;;;;;;4936742;29;20165;-65
2024/01/09 14:31:58;;;;;;;0.30;0.30;;;1.20;75.90;;;;;;4936024;29;20170;-66
2024/01/09 14:34:24;;;;;;;0.40;0.40;;;1.20;75.40;;;;;;4935899;29;20173;-64
2024/01/09 14:36:50;;;;;;;0.40;0.40;;;1.20;75.50;;;;;;4935884;29;20190;-64
2024/01/09 14:39:16;;;;;;;0.40;0.40;;;1.20;76.10;;;;;;4950290;29;20239;-63
2024/01/09 14:41:42;;;;;;;0.33;0.33;;;1.20;76.20;;;;;;4953869;29;20181;-67
2024/01/09 14:44:08;;;;;;;0.40;0.40;;;1.20;76.60;;;;;;4954857;29;20292;-65
2024/01/09 14:46:33;;;;;;;0.40;0.40;;;1.20;75.30;;;;;;4940714;29;20724;-63
2024/01/09 14:48:59;;;;;;;0.40;0.40;;;1.20;75.40;;;;;;4935939;29;20265;-66
2024/01/09 14:51:25;;;;;;;0.30;0.30;;;1.10;75.50;;;;;;4934971;29;20166;-64
2024/01/09 14:53:50;;;;;;;0.50;0.50;;;1.10;75.90;;;;;;4935775;29;20173;-64
2024/01/09 14:56:19;;;;;;;0.40;0.40;;;1.10;75.80;;;;;;4935423;29;20189;-64
2024/01/09 14:58:45;;;;;;;0.30;0.30;;;1.10;76.20;;;;;;4935844;29;20209;-66
2024/01/09 15:01:17;;;;;;;0.30;0.30;;;1.10;76.30;;;;;;4954922;28;20183;-64
2024/01/09 15:03:42;;;;;;;0.38;0.38;;;1.10;75.80;;;;;;4954913;29;20212;-65
2024/01/09 15:06:09;;;;;;;0.37;0.37;;;1.00;76.10;;;;;;4954231;29;20212;-65
2024/01/09 15:08:37;;;;;;;0.60;0.60;;;1.00;76.00;;;;;;4955089;28;20193;-66
2024/01/09 15:11:04;;;;;;;0.40;0.40;;;1.00;76.30;;;;;;4954686;28;20192;-63
2024/01/09 15:13:29;;;;;;;0.40;0.40;;;0.90;76.20;;;;;;4954498;28;20228;-64
2024/01/09 15:15:55;;;;;;;0.40;0.40;;;0.90;76.40;;;;;;4935130;29;20220;-65
2024/01/09 15:18:20;;;;;;;0.40;0.40;;;0.90;76.50;;;;;;4934158;29;20170;-64
2024/01/09 15:20:46;;;;;;;0.40;0.40;;;0.90;76.60;;;;;;4935369;29;20184;-65
2024/01/09 15:23:11;;;;;;;0.40;0.40;;;0.80;76.10;;;;;;4935506;29;20176;-64
2024/01/09 15:25:37;;;;;;;0.40;0.40;;;0.80;76.70;;;;;;4935041;29;20198;-66
2024/01/09 15:28:04;;;;;;;0.30;0.30;;;0.80;77.00;;;;;;4939432;29;20665;-67
2024/01/09 15:30:29;;;;;;;0.40;0.40;;;0.80;77.10;;;;;;4953032;29;20412;-65
2024/01/09 15:32:55;;;;;;;0.60;0.60;;;0.70;77.00;;;;;;4955025;29;20173;-64
2024/01/09 15:35:23;;;;;;;0.40;0.40;;;0.70;77.20;;;;;;4954169;29;20181;-65
2024/01/09 15:37:49;;;;;;;0.40;0.40;;;0.60;77.10;;;;;;4954545;28;20655;-66
2024/01/09 15:40:15;;;;;;;0.40;0.40;;;0.60;77.70;;;;;;4954619;28;20232;-65
2024/01/09 15:42:41;;;;;;;0.40;0.40;;;0.60;78.30;;;;;;4950248;29;20982;-65
2024/01/09 15:45:10;;;;;;;0.43;0.43;;;0.60;78.80;;;;;;4934530;29;20209;-65
2024/01/09 15:47:36;;;;;;;0.50;0.50;;;0.50;78.90;;;;;;4935351;29;20201;-62
2024/01/09 15:50:02;;;;;;;0.40;0.40;;;0.50;79.10;;;;;;4935146;29;20169;-63
2024/01/09 15:52:28;;;;;;;0.40;0.40;;;0.40;79.00;;;;;;4944145;29;20181;-64
2024/01/09 15:54:53;;;;;;;0.50;0.50;;;0.40;79.40;;;;;;4953473;28;20510;-63
2024/01/09 15:57:19;;;;;;;0.40;0.40;;;0.30;79.30;;;;;;4953706;29;20203;-64
2024/01/09 15:59:45;;;;;;;0.50;0.50;;;0.30;79.70;;;;;;4953757;28;20581;-64
2024/01/09 16:02:11;;;;;;;0.50;0.50;;;0.30;79.90;;;;;;4955146;28;20172;-65
2024/01/09 16:04:42;;;;;;;0.40;0.40;;;0.30;79.90;;;;;;4957687;28;20176;-65
2024/01/09 16:07:08;;;;;;;0.40;0.40;;;0.30;79.90;;;;;;4957360;28;20608;-65
2024/01/09 16:09:34;;;;;;;0.40;0.40;;;0.30;80.20;;;;;;4957897;28;20164;-64
2024/01/09 16:12:00;;;;;;;0.40;0.40;;;0.20;80.00;;;;;;4944480;28;20280;-67
2024/01/09 16:14:26;;;;;;;0.40;0.40;;;0.20;80.30;;;;;;4938639;29;20430;-65
2024/01/09 16:16:53;;;;;;;0.47;0.47;;;0.10;79.90;;;;;;4938542;29;20199;-65
2024/01/09 16:19:18;;;;;;;0.40;0.40;;;0.10;79.90;;;;;;4938315;29;20417;-64
2024/01/09 16:21:44;;;;;;;0.40;0.40;;;0.10;79.90;;;;;;4938306;29;20184;-65
2024/01/09 16:24:10;;;;;;;0.40;0.40;;;0.10;80.00;;;;;;4937947;29;20236;-66
2024/01/09 16:26:37;;;;;;;0.43;0.43;;;0.10;80.10;;;;;;4949323;29;20236;-64
2024/01/09 16:29:03;;;;;;;0.50;0.50;;;0.00;80.00;;;;;;4957475;28;20493;-65
2024/01/09 16:31:29;;;;;;;0.50;0.50;;;0.00;80.40;;;;;;4957894;28;20606;-65
2024/01/09 16:33:55;;;;;;;0.70;0.70;;;0.00;80.70;;;;;;4957470;28;20165;-65
2024/01/09 16:36:22;;;;;;;0.40;0.40;;;0.00;80.90;;;;;;4956781;29;20716;-63
2024/01/09 16:38:50;;;;;;;0.40;0.40;;;0.00;81.60;;;;;;4957455;28;20724;-64
2024/01/09 16:41:16;;;;;;;0.40;0.40;;;0.00;81.30;;;;;;4938405;28;20188;-65
2024/01/09 16:43:42;;;;;;;0.40;0.40;;;0.00;81.00;;;;;;4937658;29;20281;-64
2024/01/09 16:46:08;;;;;;;0.40;0.40;;;0.00;80.90;;;;;;4945371;29;20253;-64
2024/01/09 16:48:34;;;;;;;0.40;0.40;;;-0.10;80.60;;;;;;4946816;29;20255;-65
2024/01/09 16:51:00;;;;;;;0.40;0.40;;;-0.10;80.80;;;;;;4947325;29;20534;-65
2024/01/09 16:53:26;;;;;;;0.40;0.40;;;-0.20;80.90;;;;;;4945649;28;20170;-67
2024/01/09 16:55:55;;;;;;;0.40;0.40;;;-0.20;81.10;;;;;;4947033;28;20204;-66
2024/01/09 16:58:23;;;;;;;0.40;0.40;;;-0.20;81.20;;;;;;4945834;29;20503;-66
2024/01/09 17:00:49;;;;;;;0.40;0.40;;;-0.20;81.80;;;;;;4948393;28;20596;-64
2024/01/09 17:03:15;;;;;;;0.45;0.45;;;-0.20;81.80;;;;;;4953257;29;20200;-65
2024/01/09 17:05:44;;;;;;;0.40;0.40;;;-0.30;81.90;;;;;;4939441;29;20204;-66
2024/01/09 17:08:10;;;;;;;0.40;0.40;;;-0.30;82.10;;;;;;4947378;29;20570;-65
2024/01/09 17:10:36;;;;;;;0.70;0.70;;;-0.30;82.40;;;;;;4956570;29;20184;-65
2024/01/09 17:13:01;;;;;;;0.33;0.33;;;-0.40;82.10;;;;;;4956270;29;20179;-66
2024/01/09 17:15:27;;;;;;;0.60;0.60;;;-0.40;81.60;;;;;;4950630;28;20201;-67
2024/01/09 17:17:53;;;;;;;0.40;0.40;;;-0.30;81.80;;;;;;4952331;29;20207;-67
2024/01/09 17:20:19;;;;;;;0.50;0.50;;;-0.40;81.60;;;;;;4949618;29;20193;-65
2024/01/09 17:22:45;;;;;;;0.40;0.40;;;-0.30;81.90;;;;;;4953047;28;20576;-65
2024/01/09 17:25:10;;;;;;;0.40;0.40;;;-0.30;82.10;;;;;;4952687;28;20203;-65
2024/01/09 17:27:41;;;;;;;0.43;0.43;;;-0.40;82.20;;;;;;4953793;28;20456;-66
2024/01/09 17:30:07;;;;;;;0.30;0.30;;;-0.40;82.60;;;;;;4954793;28;20663;-66
2024/01/09 17:32:33;;;;;;;0.57;0.57;;;-0.40;83.90;;;;;;4948294;29;20525;-67
2024/01/09 17:34:59;;;;;;;0.40;0.40;;;-0.40;83.70;;;;;;4954848;28;20180;-66
2024/01/09 17:37:25;;;;;;;0.50;0.50;;;-0.50;83.70;;;;;;4955976;28;20187;-67
2024/01/09 17:39:50;;;;;;;0.40;0.40;;;-0.40;83.90;;;;;;4954308;29;20192;-67
2024/01/09 17:42:16;;;;;;;0.40;0.40;;;-0.40;84.10;;;;;;4955972;29;20184;-66
2024/01/09 17:44:41;;;;;;;0.37;0.37;;;-0.40;84.50;;;;;;4955625;29;20177;-65
2024/01/09 17:47:07;;;;;;;0.40;0.40;;;-0.50;84.80;;;;;;4955973;29;20561;-65
2024/01/09 17:49:33;;;;;;;0.40;0.40;;;-0.50;85.50;;;;;;4947404;28;20188;-66
2024/01/09 17:51:58;;;;;;;0.40;0.40;;;-0.50;86.00;;;;;;4942392;29;20196;-65
2024/01/09 17:54:24;;;;;;;0.40;0.40;;;-0.60;85.90;;;;;;4953300;29;20173;-65